LOWWEDDB

Guest
Details From LOWW - Wien Schwechat
To EDDB - Berlin Schoenefeld
Flight Number -
Tags decoded
Created
Modified
Stats Distance 295 nm / 546 km
Max Altitude 0 ft / 0 m
Waypoints 7
Social Downloads 18
Likes 0
Share

Download

Looking for another format? Having issues loading an existing format? Contact us
Advertisement - Login to hide

Notes

Requested: LOWW LANUX UL858 RISUK UT204 RODUX T204 NUKRO EDDB Unmatched points: UL858 RISUK UT204

Route

LOWW LANUX RODUX T204 NUKRO EDDB

ID Type Via Altitude (ft/m) Position (lat/lon) Dist (leg/tot) Name
O LOWW APT - 0 / 0 48.11007 / 16.56964 - / 0 nm Wien Schwechat
LANUX FIX - 0 / 0 48.88811 / 15.61579 60 / 60 nm
RODUX FIX - 0 / 0 50.94272 / 14.61718 129 / 189 nm
LOBMA FIX T204 (AWY-LO) 0 / 0 51.11972 / 14.55972 10 / 200 nm
ABLOX FIX T204 (AWY-LO) 0 / 0 51.38083 / 14.52000 15 / 216 nm
NUKRO FIX T204 (AWY-LO) 0 / 0 52.04750 / 14.41639 40 / 256 nm
O EDDB APT - 0 / 0 52.37854 / 13.52063 38 / 294 nm Berlin Schoenefeld

Altitude Profile

Advertisement - Login to hide

Weather


0- 5 10 15 20 25 30 35+ Temperature / °C

Clouds and Precipitation
Forecast for 2021-07-24 06:00 UTC. Updated 4 hours ago

Ground ~20,000 ft ~40,000 ft Winds

LOWW

Details ICAO LOWW (VIE)
Name Vienna
Region Austria
Timezone Europe/Vienna (UTC+2.0)
Stats Elevation 600 ft / 183 m (AMSL)
Location 48.110100° 16.569600°
Runways 2
Magnetic Variation 4.684° E

METAR

LOWW 240650Z 11007KT 080V160 CAVOK 21/13 Q1014 NOSIG

Decode

TAF

TAF LOWW 240515Z 2406/2512 14012KT CAVOK TX30/2414Z TN20/2406Z TEMPO 2421/2501 16022KT FM250100 14006KT 9999 BKN050 FEW050CB PROB40 TEMPO 2502/2505 29010KT TSRA FM250700 15012KT 9999 FEW030

Decode

Departure Runways

ID Width Length Bearing (true/mag) Surface Threshold Overrun Markings Lighting
11 148 ft / 45 m 11,495 ft / 3,504 m 115.99° / 111.30° ASPHALT 0 ft / 0 m 174 ft / 53 m PREC-APP CENTERLINE EDGE THRESHOLD ALSF-II TDZ REIL-OMNI
16 148 ft / 45 m 11,822 ft / 3,604 m 164.23° / 159.54° ASPHALT 0 ft / 0 m 197 ft / 60 m PREC-APP CENTERLINE EDGE THRESHOLD ALSF-II TDZ REIL-OMNI
29 148 ft / 45 m 11,495 ft / 3,504 m 296.02° / 291.33° ASPHALT 0 ft / 0 m 187 ft / 57 m PREC-APP CENTERLINE EDGE THRESHOLD ALSF-II TDZ REIL-OMNI
34 148 ft / 45 m 11,822 ft / 3,604 m 344.24° / 339.55° ASPHALT 0 ft / 0 m 194 ft / 59 m PREC-APP CENTERLINE EDGE THRESHOLD ALSF-II TDZ REIL-OMNI

EDDB

Details ICAO EDDB (SXF)
Name Berlin Brandenburg International Willy Brandt
Region Germany - Civil
Timezone Europe/Berlin (UTC+2.0)
Stats Elevation 157 ft / 48 m (AMSL)
Location 52.362300° 13.500700°
Runways 2
Magnetic Variation 4.282° E

METAR

EDDB 240650Z 11006KT 080V140 CAVOK 22/14 Q1013 NOSIG

Decode

TAF

TAF EDDB 240500Z 2406/2506 09007KT CAVOK= TAF EDDC 240500Z 2406/2506 VRB03KT CAVOK BECMG 2406/2409 13008KT

Decode

Destination Runways

ID Width Length Bearing (true/mag) Surface Threshold Overrun Markings Lighting
07L 148 ft / 45 m 11,780 ft / 3,591 m 68.75° / 64.47° ASPHALT 981 ft / 299 m 0 ft / 0 m PREC-APP CENTERLINE EDGE THRESHOLD ALSF-II TDZ REIL-OMNI
07R 197 ft / 60 m 13,088 ft / 3,989 m 68.74° / 64.46° CONCRETE 0 ft / 0 m 0 ft / 0 m PREC-APP CENTERLINE EDGE THRESHOLD ALSF-II TDZ
25L 197 ft / 60 m 13,088 ft / 3,989 m 248.78° / 244.50° CONCRETE 0 ft / 0 m 0 ft / 0 m PREC-APP CENTERLINE EDGE THRESHOLD ALSF-II TDZ
25R 148 ft / 45 m 11,780 ft / 3,591 m 248.79° / 244.51° ASPHALT 981 ft / 299 m 0 ft / 0 m PREC-APP CENTERLINE EDGE THRESHOLD ALSF-II TDZ REIL-OMNI

Approach Navaids

Runway Type Ident Frequency Range Bearing (true/mag) Slope Elevation
07L GS IBNE 110.70 MHz 10 nm / 19 km 68.77° / 64.49 ° 3.00° 157 ft / 48 m (AMSL)
07L MM MM - - 68.77° / 64.49 ° - 157 ft / 48 m (AMSL)
07L LOC-ILS IBNE 110.70 MHz 18 nm / 33 km 68.77° / 64.49 ° - 157 ft / 48 m (AMSL)
07R GS IBSE 109.70 MHz 10 nm / 19 km 68.77° / 64.49 ° 3.00° 157 ft / 48 m (AMSL)
07R LOC-ILS IBSE 109.70 MHz 18 nm / 33 km 68.77° / 64.49 ° - 157 ft / 48 m (AMSL)
25L GS IBSW 109.50 MHz 10 nm / 19 km 248.77° / 244.49 ° 3.00° 157 ft / 48 m (AMSL)
25L LOC-ILS IBSW 109.50 MHz 18 nm / 33 km 248.77° / 244.49 ° - 157 ft / 48 m (AMSL)
25R MM MM - - 248.77° / 244.49 ° - 157 ft / 48 m (AMSL)
25R LOC-ILS IBNW 109.90 MHz 18 nm / 33 km 248.77° / 244.49 ° - 157 ft / 48 m (AMSL)
25R GS IBNW 109.90 MHz 10 nm / 19 km 248.77° / 244.49 ° 3.00° 157 ft / 48 m (AMSL)

Popular Alternatives